Time;durP1;ratioP1;P1;durP2;ratioP2;P2;SDS_P1;SDS_P2;PMS_P1;PMS_P2;Temp;Humidity;BMP_temperature;BMP_pressure;BME280_temperature;BME280_humidity;BME280_pressure;Samples;Min_cycle;Max_cycle;Signal;HPM_P1;HPM_P2
2022/09/24 00:01:13;;;;;;;2.75;2.42;;;16.00;63.50;;;;;;5051497;28;20061;-70
2022/09/24 00:03:40;;;;;;;2.75;2.50;;;16.00;63.60;;;;;;5052556;28;20052;-71
2022/09/24 00:06:07;;;;;;;2.90;2.60;;;16.00;63.50;;;;;;5051685;28;20106;-69
2022/09/24 00:08:35;;;;;;;3.08;2.45;;;16.00;63.50;;;;;;5051279;28;20062;-70
2022/09/24 00:11:03;;;;;;;3.53;2.63;;;16.00;63.50;;;;;;5051124;28;20061;-70
2022/09/24 00:13:30;;;;;;;2.60;2.40;;;16.00;63.50;;;;;;5051427;28;20084;-70
2022/09/24 00:15:56;;;;;;;3.22;2.75;;;16.00;63.50;;;;;;5052321;28;20421;-69
2022/09/24 00:18:23;;;;;;;3.00;2.42;;;16.00;63.50;;;;;;5052343;28;20045;-70
2022/09/24 00:20:50;;;;;;;2.90;2.60;;;16.00;66.70;;;;;;5052214;28;20045;-70
2022/09/24 00:23:16;;;;;;;3.25;2.63;;;16.00;63.50;;;;;;5051364;28;20063;-70
2022/09/24 00:28:29;;;;;;;2.70;2.45;;;16.00;63.50;;;;;;5052335;28;20045;-70
2022/09/24 00:30:57;;;;;;;2.83;2.50;;;16.00;63.50;;;;;;5051050;28;20061;-70
2022/09/24 00:33:24;;;;;;;2.75;2.42;;;16.00;63.50;;;;;;5051274;28;20068;-70
2022/09/24 00:35:53;;;;;;;3.22;2.47;;;16.00;63.50;;;;;;5050855;28;20059;-70
2022/09/24 00:38:20;;;;;;;2.97;2.65;;;16.00;63.50;;;;;;5051119;28;20059;-69
2022/09/24 00:40:48;;;;;;;3.63;2.85;;;16.80;67.00;;;;;;5051826;28;20045;-69
2022/09/24 00:43:22;;;;;;;3.60;2.88;;;16.00;63.50;;;;;;5051536;28;20057;-69
2022/09/24 00:45:49;;;;;;;2.65;2.30;;;16.00;63.50;;;;;;5050815;28;20544;-69
2022/09/24 00:48:16;;;;;;;3.22;2.65;;;16.00;63.50;;;;;;5051984;28;20057;-70
2022/09/24 00:50:42;;;;;;;2.60;2.40;;;16.10;63.50;;;;;;5051725;28;20528;-70
2022/09/24 00:53:11;;;;;;;2.80;2.50;;;16.10;63.60;;;;;;5052120;28;20051;-70
2022/09/24 00:55:38;;;;;;;2.47;2.28;;;16.00;63.50;;;;;;5051543;28;20080;-70
2022/09/24 00:58:06;;;;;;;2.90;2.60;;;16.00;63.50;;;;;;5050492;28;20076;-70
2022/09/24 01:00:33;;;;;;;3.30;2.67;;;16.10;63.50;;;;;;5051501;28;20045;-70
2022/09/24 01:03:02;;;;;;;2.58;2.28;;;15.80;66.70;;;;;;5051928;28;20132;-70
2022/09/24 01:05:28;;;;;;;2.88;2.28;;;16.10;63.60;;;;;;5051759;28;20124;-70
2022/09/24 01:07:55;;;;;;;3.00;2.60;;;16.00;63.50;;;;;;5050827;28;20045;-70
2022/09/24 01:13:13;;;;;;;3.08;2.53;;;16.10;63.50;;;;;;5049728;28;20080;-70
2022/09/24 01:15:42;;;;;;;2.90;2.60;;;16.00;63.50;;;;;;5050594;28;20052;-70
2022/09/24 01:18:11;;;;;;;2.75;2.30;;;15.90;66.10;;;;;;5051300;28;20048;-70
2022/09/24 01:20:50;;;;;;;3.38;2.50;;;16.00;63.50;;;;;;5051324;28;20055;-71
2022/09/24 01:23:26;;;;;;;4.00;2.53;;;16.10;63.50;;;;;;5051673;28;20045;-70
2022/09/24 01:26:01;;;;;;;2.75;2.20;;;16.10;63.50;;;;;;5051049;28;20053;-70
2022/09/24 01:28:34;;;;;;;2.80;2.40;;;16.00;63.50;;;;;;5050547;28;20057;-70
2022/09/24 01:31:05;;;;;;;3.30;2.80;;;16.00;63.50;;;;;;5050364;28;20063;-70
2022/09/24 01:33:32;;;;;;;2.80;2.47;;;16.10;63.60;;;;;;5050592;28;20060;-70
2022/09/24 01:36:00;;;;;;;4.45;2.30;;;16.00;63.50;;;;;;5050276;28;20063;-70
2022/09/24 01:38:29;;;;;;;3.25;2.58;;;16.10;63.50;;;;;;5051073;28;20056;-70
2022/09/24 01:40:56;;;;;;;3.10;2.50;;;16.10;63.50;;;;;;5051337;28;20045;-70
2022/09/24 01:43:25;;;;;;;3.13;2.70;;;16.00;63.50;;;;;;5050429;28;20413;-70
2022/09/24 01:45:51;;;;;;;2.80;2.50;;;16.10;63.50;;;;;;5050441;28;20045;-70
2022/09/24 01:48:20;;;;;;;3.80;2.78;;;16.10;63.60;;;;;;5050348;28;20045;-70
2022/09/24 01:50:50;;;;;;;3.55;2.65;;;16.00;63.50;;;;;;5051076;28;20045;-70
2022/09/24 01:53:18;;;;;;;2.95;2.55;;;16.00;63.50;;;;;;5051903;28;20063;-70
2022/09/24 01:55:48;;;;;;;3.15;2.85;;;16.00;63.50;;;;;;5054041;28;20061;-70
2022/09/24 01:58:18;;;;;;;3.10;2.50;;;16.00;63.50;;;;;;5055283;28;20052;-70
2022/09/24 02:00:45;;;;;;;3.20;2.72;;;16.10;63.60;;;;;;5054782;28;20136;-71
2022/09/24 02:03:14;;;;;;;3.22;2.60;;;16.10;63.60;;;;;;5055011;28;20417;-71
2022/09/24 02:05:44;;;;;;;2.70;2.50;;;16.10;63.60;;;;;;5053620;28;20688;-71
2022/09/24 02:08:12;;;;;;;3.35;2.60;;;16.10;66.00;;;;;;5055177;28;20052;-71
2022/09/24 02:10:45;;;;;;;3.10;2.40;;;16.10;63.60;;;;;;5053674;28;20132;-71
2022/09/24 02:13:12;;;;;;;3.13;2.70;;;16.10;64.10;;;;;;5054731;28;20052;-71
2022/09/24 02:15:40;;;;;;;2.60;2.40;;;16.10;63.60;;;;;;5054645;28;20540;-71
2022/09/24 02:18:09;;;;;;;2.65;2.35;;;16.00;63.50;;;;;;5053437;28;20098;-71
2022/09/24 02:20:36;;;;;;;2.78;2.47;;;16.10;63.60;;;;;;5054518;28;20045;-71
2022/09/24 02:23:04;;;;;;;3.63;2.50;;;16.00;63.50;;;;;;5054902;28;20131;-71
2022/09/24 02:25:34;;;;;;;2.80;2.50;;;16.10;63.60;;;;;;5054319;28;20416;-71
2022/09/24 02:28:02;;;;;;;3.28;2.70;;;16.10;63.60;;;;;;5054465;28;20128;-71
2022/09/24 02:30:28;;;;;;;3.80;2.60;;;16.10;63.60;;;;;;5053314;28;20060;-71
2022/09/24 02:32:55;;;;;;;2.92;2.58;;;16.10;63.60;;;;;;5053274;28;20049;-71
2022/09/24 02:35:21;;;;;;;3.05;2.47;;;16.10;63.60;;;;;;5054073;28;20049;-71
2022/09/24 02:37:47;;;;;;;2.63;2.30;;;16.10;63.60;;;;;;5054401;28;20045;-71
2022/09/24 02:40:15;;;;;;;3.00;2.38;;;16.10;63.60;;;;;;5054170;28;20045;-71
2022/09/24 02:42:42;;;;;;;3.83;2.50;;;18.00;64.60;;;;;;5053450;28;20067;-71
2022/09/24 02:45:10;;;;;;;2.85;2.40;;;16.10;63.60;;;;;;5054146;28;20565;-71
2022/09/24 02:47:37;;;;;;;3.75;2.67;;;16.10;63.60;;;;;;5054237;28;20049;-71
2022/09/24 02:50:04;;;;;;;2.80;2.30;;;16.10;63.60;;;;;;5052785;28;20494;-71
2022/09/24 02:52:31;;;;;;;2.92;2.30;;;16.10;63.60;;;;;;5053102;28;20055;-71
2022/09/24 02:54:58;;;;;;;3.25;2.50;;;16.10;63.60;;;;;;5053015;28;20060;-71
2022/09/24 02:57:26;;;;;;;3.25;2.72;;;16.10;63.60;;;;;;5052619;28;20589;-71
2022/09/24 02:59:52;;;;;;;3.63;2.58;;;16.10;63.60;;;;;;5053813;28;20049;-71
2022/09/24 03:02:19;;;;;;;3.53;2.63;;;16.10;63.60;;;;;;5053912;28;20047;-71
2022/09/24 03:04:46;;;;;;;3.30;2.55;;;16.10;63.60;;;;;;5052083;28;20059;-71
2022/09/24 03:07:13;;;;;;;3.05;2.67;;;16.10;63.50;;;;;;5053751;28;20116;-71
2022/09/24 03:09:40;;;;;;;2.97;2.60;;;16.10;63.50;;;;;;5053613;28;20444;-71
2022/09/24 03:12:07;;;;;;;2.72;2.20;;;16.10;63.50;;;;;;5052701;28;20053;-71
2022/09/24 03:14:35;;;;;;;3.45;2.42;;;16.10;63.50;;;;;;5053764;28;20381;-71
2022/09/24 03:17:01;;;;;;;2.67;2.30;;;16.10;63.50;;;;;;5053553;28;20091;-71
2022/09/24 03:19:28;;;;;;;2.80;2.40;;;16.10;63.50;;;;;;5053857;28;20075;-71
2022/09/24 03:21:55;;;;;;;3.97;2.55;;;16.00;66.10;;;;;;5051899;28;20057;-71
2022/09/24 03:24:22;;;;;;;3.00;2.70;;;16.10;63.50;;;;;;5053337;28;20128;-71
2022/09/24 03:26:48;;;;;;;3.15;2.50;;;16.10;63.50;;;;;;5053317;28;20132;-71
2022/09/24 03:29:15;;;;;;;2.80;2.40;;;16.10;63.50;;;;;;5052400;28;20500;-71
2022/09/24 03:31:42;;;;;;;4.72;2.88;;;16.20;63.50;;;;;;5053197;28;20055;-71
2022/09/24 03:34:09;;;;;;;3.72;2.60;;;16.20;63.50;;;;;;5052989;28;20095;-71
2022/09/24 03:36:35;;;;;;;3.38;2.58;;;16.20;63.50;;;;;;5053282;28;20053;-71
2022/09/24 03:39:02;;;;;;;3.00;2.50;;;16.20;63.50;;;;;;5051959;28;20384;-71
2022/09/24 03:41:29;;;;;;;2.65;2.38;;;16.20;63.50;;;;;;5052995;28;20080;-71
2022/09/24 03:43:56;;;;;;;2.78;2.45;;;16.20;63.50;;;;;;5052017;28;20155;-71
2022/09/24 03:46:27;;;;;;;2.75;2.42;;;16.20;63.40;;;;;;5051972;28;20056;-71
2022/09/24 03:48:55;;;;;;;3.25;2.78;;;16.20;63.40;;;;;;5053090;28;20048;-71
2022/09/24 03:51:21;;;;;;;3.30;2.65;;;16.20;63.40;;;;;;5052800;28;20186;-71
2022/09/24 03:53:48;;;;;;;4.43;2.45;;;16.20;63.50;;;;;;5051897;28;20053;-71
2022/09/24 03:56:15;;;;;;;3.00;2.70;;;16.20;63.40;;;;;;5052620;28;20482;-71
2022/09/24 03:58:46;;;;;;;3.03;2.58;;;16.20;63.40;;;;;;5051584;28;20098;-71
2022/09/24 04:01:12;;;;;;;2.95;2.63;;;16.20;63.40;;;;;;5051238;28;20139;-71
2022/09/24 04:03:39;;;;;;;3.28;2.65;;;16.20;63.40;;;;;;5052813;28;20051;-71
2022/09/24 04:06:08;;;;;;;3.88;2.83;;;16.20;63.40;;;;;;5051413;28;20049;-71
2022/09/24 04:08:34;;;;;;;3.00;2.70;;;16.30;63.50;;;;;;5051234;28;20682;-71
2022/09/24 04:11:01;;;;;;;3.63;2.47;;;16.20;63.40;;;;;;5052631;28;20049;-71
2022/09/24 04:13:28;;;;;;;4.13;3.05;;;16.20;63.40;;;;;;5051585;28;20056;-71
2022/09/24 04:15:54;;;;;;;3.05;2.63;;;16.20;66.40;;;;;;5052463;28;20049;-71
2022/09/24 04:18:21;;;;;;;3.00;2.70;;;16.20;63.40;;;;;;5051418;28;20454;-71
2022/09/24 04:20:48;;;;;;;3.45;2.80;;;16.20;63.40;;;;;;5051164;28;20052;-71
2022/09/24 04:23:16;;;;;;;2.83;2.53;;;16.30;63.50;;;;;;5052210;28;20508;-71
2022/09/24 04:25:43;;;;;;;3.47;2.90;;;16.40;66.50;;;;;;5051956;28;20053;-71
2022/09/24 04:28:09;;;;;;;3.05;2.47;;;16.20;63.40;;;;;;5051809;28;20045;-71
2022/09/24 04:30:36;;;;;;;3.47;2.72;;;16.30;63.50;;;;;;5051721;28;20080;-71
2022/09/24 04:33:03;;;;;;;3.20;2.90;;;16.30;63.50;;;;;;5052046;28;20115;-71
2022/09/24 04:35:31;;;;;;;3.72;2.83;;;16.20;63.40;;;;;;5052106;28;20051;-71
2022/09/24 04:37:59;;;;;;;3.40;2.90;;;16.30;63.50;;;;;;5052169;28;20047;-71
2022/09/24 04:40:27;;;;;;;3.55;2.70;;;16.30;63.40;;;;;;5051326;28;20149;-71
2022/09/24 04:42:54;;;;;;;3.70;3.10;;;16.30;63.50;;;;;;5051653;28;20052;-71
2022/09/24 04:45:20;;;;;;;2.92;2.63;;;16.20;63.40;;;;;;5050793;28;20059;-73
2022/09/24 04:47:51;;;;;;;3.38;2.80;;;17.40;66.50;;;;;;5051864;28;20049;-73
2022/09/24 04:50:18;;;;;;;3.60;2.55;;;16.20;63.40;;;;;;5049044;28;20402;-71
2022/09/24 04:52:45;;;;;;;3.47;2.65;;;16.20;63.40;;;;;;5051683;28;20496;-73
2022/09/24 04:55:11;;;;;;;3.97;2.80;;;16.30;63.50;;;;;;5051583;28;20053;-72
2022/09/24 04:57:40;;;;;;;3.20;2.88;;;16.30;63.50;;;;;;5050408;28;20051;-71
2022/09/24 05:00:08;;;;;;;2.88;2.58;;;16.30;63.50;;;;;;5050301;28;20060;-73
2022/09/24 05:02:35;;;;;;;3.03;2.42;;;16.30;63.50;;;;;;5050850;28;20053;-72
2022/09/24 05:05:01;;;;;;;2.90;2.60;;;16.30;63.50;;;;;;5049784;28;20048;-72
2022/09/24 05:07:28;;;;;;;2.90;2.60;;;16.30;63.50;;;;;;5051336;28;20075;-71
2022/09/24 05:09:55;;;;;;;3.20;2.83;;;16.30;63.50;;;;;;5051265;28;20063;-72
2022/09/24 05:12:22;;;;;;;3.53;2.97;;;16.30;63.50;;;;;;5050964;28;20057;-72
2022/09/24 05:14:50;;;;;;;3.42;2.90;;;16.30;63.50;;;;;;5051177;28;20044;-71
2022/09/24 05:17:16;;;;;;;3.28;2.60;;;16.30;63.50;;;;;;5051374;28;20059;-70
2022/09/24 05:19:43;;;;;;;3.13;2.63;;;16.30;63.50;;;;;;5051809;28;20075;-71
2022/09/24 05:22:10;;;;;;;3.70;2.70;;;16.30;63.50;;;;;;5050215;28;20056;-70
2022/09/24 05:24:36;;;;;;;2.75;2.40;;;16.30;63.50;;;;;;5050645;28;20097;-71
2022/09/24 05:27:09;;;;;;;3.70;2.80;;;16.20;63.40;;;;;;5051919;28;20415;-71
2022/09/24 05:29:36;;;;;;;3.45;2.85;;;16.30;63.50;;;;;;5054440;28;20060;-70
2022/09/24 05:32:05;;;;;;;3.25;2.65;;;16.30;63.50;;;;;;5054510;28;20102;-71
2022/09/24 05:34:32;;;;;;;3.33;2.63;;;16.30;63.50;;;;;;5055468;28;20051;-71
2022/09/24 05:36:59;;;;;;;2.90;2.47;;;16.30;63.50;;;;;;5054450;28;20163;-71
2022/09/24 05:39:26;;;;;;;3.00;2.47;;;16.30;63.50;;;;;;5055528;28;20055;-71
2022/09/24 05:41:52;;;;;;;3.20;2.70;;;16.30;63.50;;;;;;5055400;28;20071;-71
2022/09/24 05:44:20;;;;;;;3.40;2.90;;;16.30;63.50;;;;;;5055128;28;20059;-71
2022/09/24 05:46:47;;;;;;;2.95;2.38;;;16.40;64.80;;;;;;5055566;28;20088;-71
2022/09/24 05:49:15;;;;;;;4.55;2.80;;;16.30;63.50;;;;;;5055266;28;20136;-71
2022/09/24 05:51:42;;;;;;;3.40;2.65;;;15.70;66.10;;;;;;5055151;28;20532;-71
2022/09/24 05:54:09;;;;;;;3.40;2.75;;;16.30;63.50;;;;;;5053764;28;20052;-71
2022/09/24 05:56:36;;;;;;;3.42;2.58;;;16.30;63.50;;;;;;5055072;28;20577;-71
2022/09/24 05:59:03;;;;;;;3.38;2.72;;;16.30;63.50;;;;;;5054978;28;20055;-71
2022/09/24 06:01:29;;;;;;;3.75;2.85;;;16.30;63.50;;;;;;5053789;28;20056;-71
2022/09/24 06:03:56;;;;;;;3.33;2.70;;;16.30;63.50;;;;;;5055091;28;20083;-71
2022/09/24 06:06:24;;;;;;;3.08;2.45;;;16.30;63.50;;;;;;5053793;28;20144;-71
2022/09/24 06:08:51;;;;;;;3.17;2.75;;;16.30;63.50;;;;;;5054855;28;20059;-71
2022/09/24 06:11:18;;;;;;;3.72;2.85;;;16.30;63.50;;;;;;5054689;28;20045;-71
2022/09/24 06:13:45;;;;;;;3.20;2.72;;;16.30;63.50;;;;;;5054933;28;20409;-71
2022/09/24 06:16:12;;;;;;;3.53;2.90;;;16.30;63.50;;;;;;5054792;28;20055;-71
2022/09/24 06:18:39;;;;;;;6.00;2.63;;;16.30;63.50;;;;;;5054955;28;20079;-71
2022/09/24 06:21:07;;;;;;;3.30;2.70;;;16.30;63.50;;;;;;5054775;28;20056;-71
2022/09/24 06:23:35;;;;;;;3.15;2.47;;;16.30;63.50;;;;;;5054696;28;20052;-71
2022/09/24 06:26:02;;;;;;;3.08;2.50;;;16.30;63.50;;;;;;5054350;28;20055;-73
2022/09/24 06:28:29;;;;;;;3.75;3.00;;;16.30;63.50;;;;;;5054544;28;20052;-72
2022/09/24 06:30:56;;;;;;;3.55;2.83;;;16.30;63.50;;;;;;5054364;28;20126;-73
2022/09/24 06:33:23;;;;;;;4.53;3.00;;;16.30;63.50;;;;;;5053514;28;20067;-71
2022/09/24 06:35:49;;;;;;;3.97;2.90;;;16.30;63.50;;;;;;5054398;28;20422;-71
2022/09/24 06:38:17;;;;;;;3.00;2.70;;;16.20;65.70;;;;;;5052922;28;20059;-71
2022/09/24 06:40:45;;;;;;;3.05;2.65;;;16.30;63.50;;;;;;5053151;28;20053;-71
2022/09/24 06:43:14;;;;;;;3.13;2.63;;;16.30;63.50;;;;;;5054408;28;20049;-71
2022/09/24 06:45:41;;;;;;;3.13;2.70;;;16.30;63.50;;;;;;5054157;28;20044;-71
2022/09/24 06:48:09;;;;;;;3.65;2.60;;;16.30;63.50;;;;;;5052884;28;20102;-71
2022/09/24 06:50:37;;;;;;;3.20;2.70;;;16.30;63.40;;;;;;5054087;28;20045;-71
2022/09/24 06:53:05;;;;;;;3.03;2.67;;;16.30;63.40;;;;;;5052923;28;20053;-72
2022/09/24 06:55:32;;;;;;;3.78;2.88;;;16.40;63.50;;;;;;5053762;28;20036;-73
2022/09/24 06:58:04;;;;;;;3.05;2.70;;;16.30;63.40;;;;;;5054141;28;20040;-74
2022/09/24 07:00:31;;;;;;;2.88;2.40;;;16.40;63.90;;;;;;5052603;28;20063;-72
2022/09/24 07:02:57;;;;;;;3.33;2.70;;;16.40;63.40;;;;;;5054926;28;20103;-71
2022/09/24 07:05:24;;;;;;;3.20;2.55;;;16.30;63.30;;;;;;5054258;28;20063;-71
2022/09/24 07:07:51;;;;;;;2.83;2.53;;;16.40;63.30;;;;;;5053643;28;20053;-71
2022/09/24 07:10:19;;;;;;;3.05;2.55;;;16.40;63.30;;;;;;5052913;28;20524;-72
2022/09/24 07:12:46;;;;;;;3.40;2.53;;;16.40;63.30;;;;;;5053036;28;20060;-71
2022/09/24 07:15:14;;;;;;;4.45;2.40;;;16.40;63.30;;;;;;5052155;28;20049;-71
2022/09/24 07:17:41;;;;;;;3.22;2.55;;;16.50;63.30;;;;;;5052885;28;20059;-71
2022/09/24 07:20:08;;;;;;;3.28;2.55;;;16.50;63.20;;;;;;5054593;28;20063;-73
2022/09/24 07:22:39;;;;;;;3.13;2.67;;;16.60;63.20;;;;;;5053253;28;20453;-73
2022/09/24 07:25:07;;;;;;;3.05;2.40;;;16.60;63.10;;;;;;5052757;28;20448;-73
2022/09/24 07:27:34;;;;;;;3.03;2.30;;;16.60;63.00;;;;;;5052672;28;20053;-73
2022/09/24 07:30:01;;;;;;;3.15;2.45;;;16.70;62.90;;;;;;5052276;28;20063;-74
2022/09/24 07:32:29;;;;;;;2.95;2.60;;;16.70;62.90;;;;;;5054663;28;20429;-73
2022/09/24 07:34:56;;;;;;;3.25;2.35;;;16.70;62.80;;;;;;5052387;28;20482;-71
2022/09/24 07:37:23;;;;;;;3.08;2.40;;;16.80;62.80;;;;;;5054480;28;20045;-72
2022/09/24 07:39:50;;;;;;;2.95;2.58;;;16.80;62.70;;;;;;5052542;28;20052;-71
2022/09/24 07:42:16;;;;;;;3.28;2.78;;;16.80;62.70;;;;;;5052354;28;20055;-73
2022/09/24 07:44:44;;;;;;;2.63;2.30;;;16.90;62.70;;;;;;5052193;28;21600;-72
2022/09/24 07:47:10;;;;;;;3.00;2.30;;;16.90;62.60;;;;;;5055711;28;20124;-74
2022/09/24 07:49:41;;;;;;;3.33;2.50;;;16.90;62.60;;;;;;5055685;28;20124;-74
2022/09/24 07:52:08;;;;;;;3.03;2.40;;;16.90;62.50;;;;;;5053963;28;20059;-75
2022/09/24 07:54:34;;;;;;;2.85;2.38;;;16.90;62.60;;;;;;5052642;28;20061;-75
2022/09/24 07:57:01;;;;;;;2.60;2.20;;;17.00;62.60;;;;;;5056412;28;20057;-71
2022/09/24 07:59:28;;;;;;;2.83;2.28;;;17.00;62.50;;;;;;5051793;28;20452;-72
2022/09/24 08:01:54;;;;;;;2.80;2.17;;;17.00;62.60;;;;;;5051889;28;20053;-72
2022/09/24 08:04:21;;;;;;;2.65;2.15;;;17.10;62.60;;;;;;5051930;28;20052;-72
2022/09/24 08:06:49;;;;;;;3.25;2.38;;;17.10;62.60;;;;;;5052655;28;20056;-75
2022/09/24 08:09:16;;;;;;;2.42;2.22;;;17.10;62.60;;;;;;5053347;28;20051;-75
2022/09/24 08:11:43;;;;;;;2.60;2.22;;;17.10;62.60;;;;;;5053219;28;20063;-75
2022/09/24 08:14:10;;;;;;;3.05;2.53;;;17.10;62.50;;;;;;5053124;28;20067;-72
2022/09/24 08:16:38;;;;;;;2.28;1.90;;;17.10;62.50;;;;;;5050772;28;20484;-72
2022/09/24 08:19:15;;;;;;;2.70;2.20;;;17.20;62.60;;;;;;5052130;28;20051;-72
2022/09/24 08:21:42;;;;;;;3.08;2.40;;;17.20;62.60;;;;;;5050239;28;20052;-72
2022/09/24 08:24:11;;;;;;;2.70;2.00;;;17.20;62.60;;;;;;5050989;28;20158;-72
2022/09/24 08:26:38;;;;;;;2.30;2.05;;;17.20;63.10;;;;;;5059316;28;20048;-72
2022/09/24 08:29:04;;;;;;;2.80;2.28;;;17.20;62.50;;;;;;5052141;28;20453;-72
2022/09/24 08:31:32;;;;;;;2.38;2.00;;;17.30;62.60;;;;;;5055168;28;20053;-72
2022/09/24 08:33:59;;;;;;;2.85;2.13;;;17.30;62.60;;;;;;5052611;28;20044;-72
2022/09/24 08:36:26;;;;;;;2.42;2.00;;;17.30;62.60;;;;;;5034384;28;20055;-71
2022/09/24 08:38:54;;;;;;;2.92;2.30;;;17.30;62.60;;;;;;5050876;28;20053;-71
2022/09/24 08:41:31;;;;;;;2.70;2.20;;;17.30;62.50;;;;;;5047995;28;20083;-72
2022/09/24 08:44:00;;;;;;;2.10;1.90;;;17.40;62.60;;;;;;5052639;28;20053;-72
2022/09/24 08:49:16;;;;;;;2.50;2.00;;;17.40;62.60;;;;;;5052304;28;20045;-72
2022/09/24 08:51:46;;;;;;;4.07;2.10;;;17.40;62.60;;;;;;5051173;28;20063;-73
2022/09/24 08:54:13;;;;;;;2.95;2.35;;;17.50;66.10;;;;;;5051139;28;20056;-73
2022/09/24 08:56:43;;;;;;;2.95;1.92;;;17.40;63.00;;;;;;5051892;28;20476;-73
2022/09/24 08:59:14;;;;;;;3.00;2.30;;;17.50;63.40;;;;;;5050739;28;20049;-73
2022/09/24 09:01:46;;;;;;;3.47;2.20;;;17.50;63.30;;;;;;5051738;28;20052;-72
2022/09/24 09:04:21;;;;;;;3.53;2.03;;;17.50;63.30;;;;;;5051348;28;20457;-73
2022/09/24 09:06:57;;;;;;;4.60;2.13;;;17.50;64.10;;;;;;5050758;28;20057;-72
2022/09/24 09:09:25;;;;;;;4.53;2.10;;;17.60;63.30;;;;;;5050764;28;20053;-71
2022/09/24 09:11:58;;;;;;;3.10;2.00;;;17.50;65.70;;;;;;5050875;28;20500;-72
2022/09/24 09:14:26;;;;;;;2.80;2.10;;;17.60;63.20;;;;;;5050875;28;20057;-72
2022/09/24 09:16:55;;;;;;;3.33;1.90;;;17.70;63.20;;;;;;5050354;28;20053;-72
2022/09/24 09:19:23;;;;;;;4.03;1.83;;;17.70;63.20;;;;;;5034085;28;20045;-72
2022/09/24 09:21:53;;;;;;;4.55;2.00;;;17.70;63.20;;;;;;5050548;28;20053;-70
2022/09/24 09:24:22;;;;;;;3.35;1.83;;;17.70;63.10;;;;;;5051960;28;20618;-70
2022/09/24 09:26:50;;;;;;;3.13;2.10;;;17.70;64.00;;;;;;5050790;28;20045;-70
2022/09/24 09:29:18;;;;;;;3.72;1.90;;;17.70;63.10;;;;;;5050857;28;20041;-71
2022/09/24 09:31:50;;;;;;;2.08;1.70;;;17.70;63.00;;;;;;5049722;28;20475;-70
2022/09/24 09:34:27;;;;;;;4.65;2.00;;;17.70;63.00;;;;;;5051256;28;20057;-71
2022/09/24 09:37:00;;;;;;;3.25;2.08;;;17.80;63.10;;;;;;5049996;28;20148;-70
2022/09/24 09:39:36;;;;;;;2.72;1.70;;;17.70;63.00;;;;;;5048181;28;20083;-70
2022/09/24 09:42:08;;;;;;;3.30;1.80;;;17.80;63.00;;;;;;5047477;28;20494;-71
2022/09/24 09:44:40;;;;;;;2.28;1.73;;;17.80;63.00;;;;;;5050914;28;20397;-70
2022/09/24 09:47:14;;;;;;;3.47;1.75;;;17.80;62.90;;;;;;5048226;28;20061;-70
2022/09/24 09:49:41;;;;;;;2.75;1.80;;;17.80;62.90;;;;;;5047492;28;20053;-70
2022/09/24 09:52:12;;;;;;;2.90;1.70;;;17.90;63.00;;;;;;5050425;28;20397;-70
2022/09/24 09:54:40;;;;;;;2.92;1.73;;;17.90;63.00;;;;;;5049457;28;20098;-70
2022/09/24 09:57:08;;;;;;;3.50;1.80;;;17.90;62.90;;;;;;5048906;28;20512;-70
2022/09/24 09:59:35;;;;;;;2.22;1.60;;;17.90;62.90;;;;;;5049074;28;20048;-71
2022/09/24 10:02:03;;;;;;;3.70;1.90;;;17.90;62.90;;;;;;5049262;28;20083;-70
2022/09/24 10:04:38;;;;;;;3.50;1.80;;;17.90;62.90;;;;;;5048839;28;20055;-70
2022/09/24 10:07:06;;;;;;;2.95;1.75;;;17.90;62.80;;;;;;5049822;28;20414;-70
2022/09/24 10:09:33;;;;;;;2.97;2.00;;;17.90;62.80;;;;;;5051260;28;20063;-70
2022/09/24 10:12:09;;;;;;;3.55;1.95;;;17.90;62.80;;;;;;5051411;28;20467;-70
2022/09/24 10:14:36;;;;;;;2.97;1.77;;;17.90;62.80;;;;;;5049914;28;20405;-70
2022/09/24 10:17:05;;;;;;;2.63;1.60;;;17.80;62.80;;;;;;5054109;28;20051;-70
2022/09/24 10:19:34;;;;;;;2.33;1.55;;;17.90;62.80;;;;;;5053796;28;20052;-71
2022/09/24 10:22:08;;;;;;;2.03;1.70;;;17.90;62.90;;;;;;5053817;28;20478;-72
2022/09/24 10:24:35;;;;;;;2.75;1.58;;;17.90;63.10;;;;;;5053825;28;20057;-73
2022/09/24 10:27:10;;;;;;;2.20;1.70;;;17.90;63.20;;;;;;5053354;28;20049;-73
2022/09/24 10:32:23;;;;;;;2.17;1.48;;;17.90;63.30;;;;;;5053371;28;20131;-72
2022/09/24 10:34:59;;;;;;;2.38;1.52;;;17.90;63.20;;;;;;5052930;28;20057;-71
2022/09/24 10:37:26;;;;;;;2.53;1.60;;;17.90;63.20;;;;;;5052659;28;20052;-72
2022/09/24 10:40:00;;;;;;;2.53;1.50;;;17.90;63.20;;;;;;5052759;28;20045;-72
2022/09/24 10:42:27;;;;;;;1.95;1.60;;;17.90;63.20;;;;;;5053799;28;20508;-72
2022/09/24 10:44:54;;;;;;;3.28;1.60;;;17.90;63.20;;;;;;5053998;28;20083;-72
2022/09/24 10:47:34;;;;;;;3.65;1.70;;;17.90;63.10;;;;;;5052850;28;20055;-72
2022/09/24 10:50:26;;;;;;;3.60;1.67;;;17.90;63.00;;;;;;5052786;28;20051;-72
2022/09/24 10:52:53;;;;;;;2.00;1.50;;;17.90;63.00;;;;;;5050479;28;20513;-72
2022/09/24 10:55:37;;;;;;;2.10;1.50;;;17.90;63.00;;;;;;5052801;28;20407;-72
2022/09/24 10:58:07;;;;;;;3.22;1.85;;;17.80;62.90;;;;;;5053817;28;20037;-72
2022/09/24 11:00:38;;;;;;;3.08;1.70;;;17.80;62.90;;;;;;5052151;28;20048;-72
2022/09/24 11:03:35;;;;;;;2.08;1.50;;;17.90;63.00;;;;;;5052128;28;20063;-72
2022/09/24 11:06:04;;;;;;;2.30;1.60;;;17.90;62.90;;;;;;5051904;28;20115;-72
2022/09/24 11:08:51;;;;;;;2.15;1.60;;;17.90;63.00;;;;;;5052231;28;20049;-72
2022/09/24 11:11:25;;;;;;;2.00;1.35;;;17.90;62.90;;;;;;5052670;28;20076;-72
2022/09/24 11:13:56;;;;;;;2.00;1.35;;;17.90;63.00;;;;;;5052833;28;20387;-72
2022/09/24 11:16:51;;;;;;;1.90;1.50;;;17.90;63.00;;;;;;5052043;28;20560;-72
2022/09/24 11:19:27;;;;;;;2.22;1.65;;;17.90;62.90;;;;;;5051058;28;20053;-72
2022/09/24 11:22:08;;;;;;;3.70;1.30;;;17.80;62.90;;;;;;5050494;28;20057;-72
2022/09/24 11:24:50;;;;;;;2.58;1.30;;;17.80;62.90;;;;;;5050581;28;20053;-72
2022/09/24 11:27:30;;;;;;;2.20;1.40;;;17.80;62.80;;;;;;5050344;28;20413;-72
2022/09/24 11:30:03;;;;;;;1.90;1.30;;;17.80;62.90;;;;;;5050678;28;20055;-72
2022/09/24 11:32:31;;;;;;;2.38;1.50;;;17.80;63.00;;;;;;5049854;28;20092;-72
2022/09/24 11:35:18;;;;;;;2.33;1.70;;;17.80;63.20;;;;;;5053475;28;20051;-73
2022/09/24 11:37:52;;;;;;;2.47;1.40;;;17.80;63.30;;;;;;5052400;28;20074;-73
2022/09/24 11:40:34;;;;;;;1.77;1.30;;;17.70;63.40;;;;;;5052315;28;20470;-73
2022/09/24 11:43:11;;;;;;;6.30;1.40;;;17.70;63.40;;;;;;5052452;28;20140;-72
2022/09/24 11:45:46;;;;;;;6.95;1.48;;;17.70;63.50;;;;;;5053185;28;20409;-71
2022/09/24 11:48:23;;;;;;;5.50;1.50;;;17.80;63.60;;;;;;5052489;28;20056;-72
2022/09/24 11:50:58;;;;;;;5.53;1.90;;;17.80;63.60;;;;;;5052106;28;20045;-72
2022/09/24 11:53:28;;;;;;;5.05;1.50;;;17.80;63.60;;;;;;5052123;28;20053;-72
2022/09/24 11:55:57;;;;;;;3.80;1.50;;;17.80;63.70;;;;;;5052101;28;20066;-71
2022/09/24 11:58:25;;;;;;;3.88;1.50;;;17.80;63.70;;;;;;5051742;28;20053;-71
2022/09/24 12:00:53;;;;;;;2.08;1.30;;;17.80;63.70;;;;;;5051602;28;20416;-71
2022/09/24 12:03:22;;;;;;;5.32;1.55;;;17.80;63.80;;;;;;5051703;28;20053;-73
2022/09/24 12:05:51;;;;;;;3.50;1.42;;;17.80;64.00;;;;;;5053820;28;20053;-72
2022/09/24 12:08:20;;;;;;;4.50;1.55;;;17.80;64.00;;;;;;5052748;28;20501;-74
2022/09/24 12:10:49;;;;;;;4.68;1.60;;;17.80;64.10;;;;;;5051641;28;20049;-71
2022/09/24 12:13:18;;;;;;;5.63;1.30;;;17.80;64.10;;;;;;5051506;28;20132;-70
2022/09/24 12:15:50;;;;;;;3.83;1.77;;;17.80;64.30;;;;;;5051940;28;20095;-71
2022/09/24 12:18:19;;;;;;;5.65;1.88;;;17.80;64.30;;;;;;5051560;28;20067;-72
2022/09/24 12:20:49;;;;;;;6.88;1.48;;;17.80;64.40;;;;;;5052537;28;20045;-70
2022/09/24 12:23:16;;;;;;;3.38;1.73;;;17.90;64.60;;;;;;5051239;28;20060;-70
2022/09/24 12:25:45;;;;;;;4.60;1.60;;;17.80;64.60;;;;;;5051592;28;20413;-71
2022/09/24 12:28:13;;;;;;;4.20;1.40;;;17.90;64.70;;;;;;5051439;28;20067;-70
2022/09/24 12:33:29;;;;;;;3.13;1.40;;;17.90;64.90;;;;;;5051374;28;20056;-72
2022/09/24 12:36:00;;;;;;;5.78;1.45;;;17.90;65.10;;;;;;5051276;28;20057;-71
2022/09/24 12:38:31;;;;;;;5.25;1.50;;;17.90;65.10;;;;;;5050605;28;20061;-70
2022/09/24 12:41:19;;;;;;;3.83;1.23;;;17.90;65.20;;;;;;5050222;28;20116;-71
2022/09/24 12:43:47;;;;;;;6.13;2.17;;;17.90;65.30;;;;;;5049544;28;20124;-71
2022/09/24 12:46:16;;;;;;;4.00;1.60;;;17.90;65.30;;;;;;5050693;28;20057;-70
2022/09/24 12:48:43;;;;;;;4.70;1.75;;;17.90;65.30;;;;;;5051329;28;20053;-72
2022/09/24 12:51:10;;;;;;;5.15;1.52;;;17.90;65.60;;;;;;5050655;28;20064;-71
2022/09/24 12:53:38;;;;;;;2.88;1.42;;;17.90;65.80;;;;;;5051752;28;20087;-72
2022/09/24 12:56:05;;;;;;;4.00;1.42;;;17.90;65.80;;;;;;5051068;28;20063;-71
2022/09/24 12:58:38;;;;;;;3.47;1.58;;;17.90;65.80;;;;;;5050918;28;20057;-70
2022/09/24 13:01:06;;;;;;;2.42;1.35;;;17.90;65.90;;;;;;5050544;28;20055;-72
2022/09/24 13:03:34;;;;;;;5.25;1.48;;;17.90;65.80;;;;;;5050564;28;20048;-73
2022/09/24 13:06:01;;;;;;;4.13;1.60;;;17.90;65.80;;;;;;5050491;28;20057;-72
2022/09/24 13:08:35;;;;;;;2.67;1.38;;;17.90;65.70;;;;;;5051643;28;20106;-73
2022/09/24 13:11:05;;;;;;;3.22;1.35;;;17.90;65.70;;;;;;5050712;28;20581;-72